sensor_id;sensor_type;location;lat;lon;timestamp;pressure;altitude;pressure_sealevel;temperature;humidity
79144;BME280;68551;47.484;19.092;2023-05-14T00:01:59;100845.88;;;12.29;71.23
79144;BME280;68551;47.484;19.092;2023-05-14T00:05:04;100850.72;;;12.27;71.58
79144;BME280;68551;47.484;19.092;2023-05-14T00:08:06;100838.69;;;12.10;72.04
79144;BME280;68551;47.484;19.092;2023-05-14T00:11:11;100836.56;;;12.12;72.45
79144;BME280;68551;47.484;19.092;2023-05-14T00:14:14;100826.53;;;12.05;72.33
79144;BME280;68551;47.484;19.092;2023-05-14T00:17:20;100831.53;;;12.08;73.44
79144;BME280;68551;47.484;19.092;2023-05-14T00:20:23;100830.69;;;12.08;72.11
79144;BME280;68551;47.484;19.092;2023-05-14T00:23:25;100831.59;;;12.02;72.75
79144;BME280;68551;47.484;19.092;2023-05-14T00:26:31;100835.72;;;12.11;72.85
79144;BME280;68551;47.484;19.092;2023-05-14T00:29:36;100834.75;;;12.05;72.48
79144;BME280;68551;47.484;19.092;2023-05-14T00:32:40;100816.81;;;12.10;72.57
79144;BME280;68551;47.484;19.092;2023-05-14T00:35:43;100827.09;;;12.14;72.81
79144;BME280;68551;47.484;19.092;2023-05-14T00:38:45;100824.75;;;12.18;71.79
79144;BME280;68551;47.484;19.092;2023-05-14T00:41:52;100820.66;;;12.27;71.46
79144;BME280;68551;47.484;19.092;2023-05-14T00:44:54;100811.59;;;12.33;71.26
79144;BME280;68551;47.484;19.092;2023-05-14T00:47:59;100824.31;;;12.21;70.91
79144;BME280;68551;47.484;19.092;2023-05-14T00:51:02;100819.88;;;11.95;72.53
79144;BME280;68551;47.484;19.092;2023-05-14T00:54:10;100817.44;;;12.12;71.80
79144;BME280;68551;47.484;19.092;2023-05-14T00:57:18;100812.16;;;12.17;71.34
79144;BME280;68551;47.484;19.092;2023-05-14T01:00:20;100816.69;;;12.23;71.20
79144;BME280;68551;47.484;19.092;2023-05-14T01:03:28;100800.78;;;12.20;71.57
79144;BME280;68551;47.484;19.092;2023-05-14T01:06:48;100798.63;;;12.22;71.41
79144;BME280;68551;47.484;19.092;2023-05-14T01:17:11;100790.28;;;12.17;70.98
79144;BME280;68551;47.484;19.092;2023-05-14T01:20:15;100782.75;;;12.12;71.60
79144;BME280;68551;47.484;19.092;2023-05-14T01:23:18;100782.25;;;12.22;71.52
79144;BME280;68551;47.484;19.092;2023-05-14T01:26:22;100781.47;;;12.15;71.89
79144;BME280;68551;47.484;19.092;2023-05-14T01:29:25;100778.97;;;12.13;71.32
79144;BME280;68551;47.484;19.092;2023-05-14T01:32:32;100783.16;;;12.16;71.94
79144;BME280;68551;47.484;19.092;2023-05-14T01:35:35;100770.56;;;12.15;72.35
79144;BME280;68551;47.484;19.092;2023-05-14T01:38:38;100771.63;;;12.14;73.54
79144;BME280;68551;47.484;19.092;2023-05-14T01:41:43;100754.91;;;12.03;73.50
79144;BME280;68551;47.484;19.092;2023-05-14T01:44:48;100753.47;;;12.01;73.39
79144;BME280;68551;47.484;19.092;2023-05-14T01:47:52;100760.50;;;12.08;73.23
79144;BME280;68551;47.484;19.092;2023-05-14T01:50:55;100748.84;;;12.01;72.89
79144;BME280;68551;47.484;19.092;2023-05-14T01:53:57;100734.88;;;12.10;72.77
79144;BME280;68551;47.484;19.092;2023-05-14T01:57:00;100733.38;;;12.14;73.32
79144;BME280;68551;47.484;19.092;2023-05-14T02:00:02;100741.56;;;12.14;73.38
79144;BME280;68551;47.484;19.092;2023-05-14T02:03:14;100723.13;;;12.09;72.85
79144;BME280;68551;47.484;19.092;2023-05-14T02:06:19;100719.41;;;12.03;73.10
79144;BME280;68551;47.484;19.092;2023-05-14T02:09:22;100725.56;;;12.17;72.82
79144;BME280;68551;47.484;19.092;2023-05-14T02:12:25;100714.56;;;12.05;73.25
79144;BME280;68551;47.484;19.092;2023-05-14T02:15:30;100716.44;;;12.05;73.42
79144;BME280;68551;47.484;19.092;2023-05-14T02:18:34;100720.59;;;12.07;72.25
79144;BME280;68551;47.484;19.092;2023-05-14T02:21:37;100724.66;;;12.05;72.83
79144;BME280;68551;47.484;19.092;2023-05-14T02:24:41;100720.16;;;12.11;71.86
79144;BME280;68551;47.484;19.092;2023-05-14T02:27:45;100724.13;;;12.15;72.42
79144;BME280;68551;47.484;19.092;2023-05-14T02:30:57;100721.53;;;12.01;72.46
79144;BME280;68551;47.484;19.092;2023-05-14T02:34:05;100722.88;;;12.11;71.99
79144;BME280;68551;47.484;19.092;2023-05-14T02:37:12;100722.28;;;12.08;72.53
79144;BME280;68551;47.484;19.092;2023-05-14T02:40:17;100717.44;;;11.92;72.63
79144;BME280;68551;47.484;19.092;2023-05-14T02:43:19;100715.75;;;11.91;71.84
79144;BME280;68551;47.484;19.092;2023-05-14T02:46:30;100727.44;;;11.98;72.61
79144;BME280;68551;47.484;19.092;2023-05-14T02:49:35;100716.81;;;11.90;72.07
79144;BME280;68551;47.484;19.092;2023-05-14T02:52:41;100720.81;;;11.88;72.49
79144;BME280;68551;47.484;19.092;2023-05-14T02:55:43;100713.28;;;11.83;72.74
79144;BME280;68551;47.484;19.092;2023-05-14T02:58:50;100712.41;;;11.89;72.43
79144;BME280;68551;47.484;19.092;2023-05-14T03:01:52;100713.94;;;12.03;71.71
79144;BME280;68551;47.484;19.092;2023-05-14T03:04:57;100716.81;;;12.08;71.89
79144;BME280;68551;47.484;19.092;2023-05-14T03:08:02;100691.75;;;11.93;71.75
79144;BME280;68551;47.484;19.092;2023-05-14T03:11:04;100702.63;;;12.00;71.47
79144;BME280;68551;47.484;19.092;2023-05-14T03:14:10;100706.16;;;11.82;71.85
79144;BME280;68551;47.484;19.092;2023-05-14T03:17:12;100717.16;;;11.76;72.29
79144;BME280;68551;47.484;19.092;2023-05-14T03:20:17;100707.06;;;11.76;72.11
79144;BME280;68551;47.484;19.092;2023-05-14T03:23:22;100713.97;;;11.79;71.89
79144;BME280;68551;47.484;19.092;2023-05-14T03:26:27;100713.16;;;11.78;71.81
79144;BME280;68551;47.484;19.092;2023-05-14T03:29:29;100720.81;;;11.88;71.37
79144;BME280;68551;47.484;19.092;2023-05-14T03:32:34;100718.31;;;11.86;71.82
79144;BME280;68551;47.484;19.092;2023-05-14T03:35:38;100714.53;;;11.87;72.32
79144;BME280;68551;47.484;19.092;2023-05-14T03:38:43;100712.41;;;11.89;71.51
79144;BME280;68551;47.484;19.092;2023-05-14T03:41:51;100712.31;;;11.71;70.94
79144;BME280;68551;47.484;19.092;2023-05-14T03:45:03;100712.31;;;11.71;71.98
79144;BME280;68551;47.484;19.092;2023-05-14T03:48:05;100716.19;;;11.88;71.68
79144;BME280;68551;47.484;19.092;2023-05-14T03:51:08;100712.41;;;11.89;71.63
79144;BME280;68551;47.484;19.092;2023-05-14T03:54:13;100706.41;;;11.99;70.47
79144;BME280;68551;47.484;19.092;2023-05-14T03:57:15;100684.50;;;12.05;70.72
79144;BME280;68551;47.484;19.092;2023-05-14T04:00:20;100694.22;;;12.01;70.88
79144;BME280;68551;47.484;19.092;2023-05-14T04:03:30;100680.47;;;12.08;69.41
79144;BME280;68551;47.484;19.092;2023-05-14T04:06:33;100710.50;;;12.08;70.69
79144;BME280;68551;47.484;19.092;2023-05-14T04:09:36;100701.88;;;11.93;70.02
79144;BME280;68551;47.484;19.092;2023-05-14T04:12:38;100696.56;;;11.98;70.57
79144;BME280;68551;47.484;19.092;2023-05-14T04:15:41;100694.47;;;11.93;70.34
79144;BME280;68551;47.484;19.092;2023-05-14T04:18:46;100702.09;;;11.91;70.66
79144;BME280;68551;47.484;19.092;2023-05-14T04:21:49;100696.91;;;11.83;70.49
79144;BME280;68551;47.484;19.092;2023-05-14T04:24:51;100685.59;;;11.80;70.29
79144;BME280;68551;47.484;19.092;2023-05-14T04:27:56;100691.44;;;11.83;70.83
79144;BME280;68551;47.484;19.092;2023-05-14T04:31:02;100696.56;;;11.73;71.65
79144;BME280;68551;47.484;19.092;2023-05-14T04:34:06;100680.19;;;11.73;70.33
79144;BME280;68551;47.484;19.092;2023-05-14T04:37:11;100687.31;;;11.74;71.74
79144;BME280;68551;47.484;19.092;2023-05-14T04:40:14;100682.72;;;11.68;70.69
79144;BME280;68551;47.484;19.092;2023-05-14T04:43:21;100690.22;;;11.79;71.01
79144;BME280;68551;47.484;19.092;2023-05-14T04:46:28;100689.19;;;11.73;71.02
79144;BME280;68551;47.484;19.092;2023-05-14T04:49:31;100664.38;;;11.57;69.93
79144;BME280;68551;47.484;19.092;2023-05-14T04:52:36;100688.09;;;11.81;69.35
79144;BME280;68551;47.484;19.092;2023-05-14T04:55:38;100682.19;;;11.84;70.08
79144;BME280;68551;47.484;19.092;2023-05-14T04:58:41;100676.13;;;11.82;70.70
79144;BME280;68551;47.484;19.092;2023-05-14T05:01:43;100671.72;;;11.81;70.33
79144;BME280;68551;47.484;19.092;2023-05-14T05:04:48;100676.56;;;11.79;69.76
79144;BME280;68551;47.484;19.092;2023-05-14T05:07:50;100674.22;;;11.83;70.12
79144;BME280;68551;47.484;19.092;2023-05-14T05:10:52;100675.69;;;11.85;69.83
79144;BME280;68551;47.484;19.092;2023-05-14T05:13:55;100682.19;;;11.84;70.04
79144;BME280;68551;47.484;19.092;2023-05-14T05:16:57;100669.81;;;11.82;69.76
79144;BME280;68551;47.484;19.092;2023-05-14T05:19:59;100674.44;;;11.81;69.80
79144;BME280;68551;47.484;19.092;2023-05-14T05:23:04;100673.03;;;11.79;69.50
79144;BME280;68551;47.484;19.092;2023-05-14T05:26:09;100664.22;;;11.77;70.38
79144;BME280;68551;47.484;19.092;2023-05-14T05:29:13;100651.22;;;11.72;69.33
79144;BME280;68551;47.484;19.092;2023-05-14T05:32:15;100654.13;;;11.77;70.15
79144;BME280;68551;47.484;19.092;2023-05-14T05:35:17;100663.75;;;11.80;69.50
79144;BME280;68551;47.484;19.092;2023-05-14T05:38:20;100659.38;;;11.79;69.69
79144;BME280;68551;47.484;19.092;2023-05-14T05:41:22;100673.03;;;11.79;70.02
79144;BME280;68551;47.484;19.092;2023-05-14T05:44:27;100663.75;;;11.80;68.89
79144;BME280;68551;47.484;19.092;2023-05-14T05:47:31;100660.66;;;11.76;70.24
79144;BME280;68551;47.484;19.092;2023-05-14T05:50:34;100658.63;;;11.90;69.48
79144;BME280;68551;47.484;19.092;2023-05-14T05:53:36;100656.50;;;11.92;70.41
79144;BME280;68551;47.484;19.092;2023-05-14T05:56:38;100663.09;;;11.84;69.69
79144;BME280;68551;47.484;19.092;2023-05-14T05:59:41;100662.41;;;11.89;69.74
79144;BME280;68551;47.484;19.092;2023-05-14T06:02:43;100671.34;;;11.78;69.95
79144;BME280;68551;47.484;19.092;2023-05-14T06:05:46;100660.66;;;11.76;70.08
79144;BME280;68551;47.484;19.092;2023-05-14T06:08:49;100680.31;;;11.85;69.69
79144;BME280;68551;47.484;19.092;2023-05-14T06:11:57;100633.28;;;11.58;70.99
79144;BME280;68551;47.484;19.092;2023-05-14T06:14:59;100676.13;;;11.82;70.77
79144;BME280;68551;47.484;19.092;2023-05-14T06:18:02;100686.59;;;11.85;70.94
79144;BME280;68551;47.484;19.092;2023-05-14T06:21:07;100671.66;;;11.88;71.11
79144;BME280;68551;47.484;19.092;2023-05-14T06:24:14;100673.72;;;11.92;71.23
79144;BME280;68551;47.484;19.092;2023-05-14T06:27:17;100686.22;;;11.82;71.25
79144;BME280;68551;47.484;19.092;2023-05-14T06:30:20;100683.03;;;11.85;71.45
79144;BME280;68551;47.484;19.092;2023-05-14T06:33:22;100688.66;;;11.90;71.93
79144;BME280;68551;47.484;19.092;2023-05-14T06:36:34;100674.66;;;11.80;71.61
79144;BME280;68551;47.484;19.092;2023-05-14T06:39:36;100678.41;;;11.85;72.53
79144;BME280;68551;47.484;19.092;2023-05-14T06:42:39;100675.31;;;12.00;71.13
79144;BME280;68551;47.484;19.092;2023-05-14T06:45:47;100669.31;;;11.91;71.84
79144;BME280;68551;47.484;19.092;2023-05-14T06:48:52;100668.41;;;11.97;72.88
79144;BME280;68551;47.484;19.092;2023-05-14T06:51:54;100656.50;;;11.92;72.37
79144;BME280;68551;47.484;19.092;2023-05-14T06:54:58;100658.72;;;12.01;72.48
79144;BME280;68551;47.484;19.092;2023-05-14T06:58:00;100653.75;;;12.10;72.16
79144;BME280;68551;47.484;19.092;2023-05-14T07:01:02;100640.94;;;12.11;71.87
79144;BME280;68551;47.484;19.092;2023-05-14T07:04:05;100656.44;;;12.17;71.09
79144;BME280;68551;47.484;19.092;2023-05-14T07:07:08;100647.63;;;12.15;72.87
79144;BME280;68551;47.484;19.092;2023-05-14T07:10:11;100644.59;;;12.04;71.98
79144;BME280;68551;47.484;19.092;2023-05-14T07:13:16;100646.78;;;12.14;70.88
79144;BME280;68551;47.484;19.092;2023-05-14T07:16:20;100627.72;;;12.07;71.47
79144;BME280;68551;47.484;19.092;2023-05-14T07:19:25;100636.38;;;12.23;71.94
79144;BME280;68551;47.484;19.092;2023-05-14T07:22:32;100635.63;;;12.34;71.41
79144;BME280;68551;47.484;19.092;2023-05-14T07:25:34;100637.34;;;12.47;70.43
79144;BME280;68551;47.484;19.092;2023-05-14T07:28:39;100634.53;;;12.53;71.21
79144;BME280;68551;47.484;19.092;2023-05-14T07:31:44;100610.06;;;12.58;70.68
79144;BME280;68551;47.484;19.092;2023-05-14T07:34:46;100624.84;;;12.69;71.35
79144;BME280;68551;47.484;19.092;2023-05-14T07:37:51;100617.47;;;12.69;69.80
79144;BME280;68551;47.484;19.092;2023-05-14T07:40:56;100619.06;;;12.77;69.98
79144;BME280;68551;47.484;19.092;2023-05-14T07:43:58;100618.13;;;12.95;69.89
79144;BME280;68551;47.484;19.092;2023-05-14T07:47:05;100617.81;;;12.91;70.58
79144;BME280;68551;47.484;19.092;2023-05-14T07:50:10;100620.38;;;13.16;70.99
79144;BME280;68551;47.484;19.092;2023-05-14T07:53:15;100604.34;;;13.31;68.98
79144;BME280;68551;47.484;19.092;2023-05-14T07:56:19;100582.97;;;13.10;69.59
79144;BME280;68551;47.484;19.092;2023-05-14T07:59:22;100591.81;;;13.35;69.55
79144;BME280;68551;47.484;19.092;2023-05-14T08:02:32;100595.66;;;12.93;69.45
79144;BME280;68551;47.484;19.092;2023-05-14T08:05:36;100602.09;;;12.87;70.17
79144;BME280;68551;47.484;19.092;2023-05-14T08:08:39;100595.53;;;12.88;71.08
79144;BME280;68551;47.484;19.092;2023-05-14T08:11:41;100586.50;;;12.87;71.35
79144;BME280;68551;47.484;19.092;2023-05-14T08:14:46;100592.44;;;12.84;71.23
79144;BME280;68551;47.484;19.092;2023-05-14T08:17:51;100576.47;;;12.69;72.81
79144;BME280;68551;47.484;19.092;2023-05-14T08:20:53;100562.25;;;12.91;73.01
79144;BME280;68551;47.484;19.092;2023-05-14T08:23:55;100570.81;;;13.06;72.80
79144;BME280;68551;47.484;19.092;2023-05-14T08:27:02;100572.09;;;12.80;72.67
79144;BME280;68551;47.484;19.092;2023-05-14T08:30:05;100562.94;;;12.74;73.43
79144;BME280;68551;47.484;19.092;2023-05-14T08:33:12;100554.16;;;12.84;73.15
79144;BME280;68551;47.484;19.092;2023-05-14T08:36:14;100552.50;;;12.95;73.31
79144;BME280;68551;47.484;19.092;2023-05-14T08:39:17;100553.47;;;12.89;74.20
79144;BME280;68551;47.484;19.092;2023-05-14T08:42:20;100557.25;;;12.88;73.68
79144;BME280;68551;47.484;19.092;2023-05-14T08:45:29;100545.25;;;13.00;74.14
79144;BME280;68551;47.484;19.092;2023-05-14T08:48:39;100528.63;;;12.90;74.59
79144;BME280;68551;47.484;19.092;2023-05-14T08:51:46;100533.34;;;13.06;74.80
79144;BME280;68551;47.484;19.092;2023-05-14T08:54:51;100534.78;;;13.09;72.62
79144;BME280;68551;47.484;19.092;2023-05-14T08:57:55;100541.47;;;13.13;73.81
79144;BME280;68551;47.484;19.092;2023-05-14T09:00:58;100543.00;;;13.09;73.59
79144;BME280;68551;47.484;19.092;2023-05-14T09:04:00;100540.41;;;13.14;74.41
79144;BME280;68551;47.484;19.092;2023-05-14T09:07:08;100532.34;;;13.19;74.47
79144;BME280;68551;47.484;19.092;2023-05-14T09:10:10;100534.50;;;13.17;74.02
79144;BME280;68551;47.484;19.092;2023-05-14T09:13:18;100532.34;;;13.31;74.38
79144;BME280;68551;47.484;19.092;2023-05-14T09:16:24;100528.31;;;13.33;74.61
79144;BME280;68551;47.484;19.092;2023-05-14T09:19:27;100520.56;;;13.19;73.69
79144;BME280;68551;47.484;19.092;2023-05-14T09:22:33;100530.44;;;13.31;74.29
79144;BME280;68551;47.484;19.092;2023-05-14T09:25:38;100532.44;;;13.36;73.66
79144;BME280;68551;47.484;19.092;2023-05-14T09:28:44;100527.81;;;13.25;73.33
79144;BME280;68551;47.484;19.092;2023-05-14T09:31:49;100518.16;;;13.22;73.83
79144;BME280;68551;47.484;19.092;2023-05-14T09:34:53;100513.28;;;13.24;73.38
79144;BME280;68551;47.484;19.092;2023-05-14T09:37:55;100517.22;;;13.28;73.37
79144;BME280;68551;47.484;19.092;2023-05-14T09:41:00;100522.84;;;13.33;72.81
79144;BME280;68551;47.484;19.092;2023-05-14T09:44:02;100505.56;;;13.33;73.49
79144;BME280;68551;47.484;19.092;2023-05-14T09:47:07;100492.13;;;13.31;73.45
79144;BME280;68551;47.484;19.092;2023-05-14T09:50:09;100495.94;;;13.30;72.77
79144;BME280;68551;47.484;19.092;2023-05-14T09:53:12;100477.84;;;13.29;72.88
79144;BME280;68551;47.484;19.092;2023-05-14T09:56:21;100489.00;;;13.51;73.70
79144;BME280;68551;47.484;19.092;2023-05-14T09:59:25;100491.00;;;13.56;72.65
79144;BME280;68551;47.484;19.092;2023-05-14T10:02:35;100497.94;;;13.46;73.21
79144;BME280;68551;47.484;19.092;2023-05-14T10:05:47;100485.66;;;13.61;72.92
79144;BME280;68551;47.484;19.092;2023-05-14T10:08:58;100481.81;;;13.62;72.90
79144;BME280;68551;47.484;19.092;2023-05-14T10:12:05;100461.63;;;13.51;74.15
79144;BME280;68551;47.484;19.092;2023-05-14T10:15:19;100448.63;;;13.58;73.55
79144;BME280;68551;47.484;19.092;2023-05-14T10:18:24;100423.47;;;13.73;73.99
79144;BME280;68551;47.484;19.092;2023-05-14T10:21:34;100405.56;;;13.82;73.27
79144;BME280;68551;47.484;19.092;2023-05-14T10:24:42;100409.06;;;13.66;73.69
79144;BME280;68551;47.484;19.092;2023-05-14T10:27:47;100398.41;;;13.81;73.13
79144;BME280;68551;47.484;19.092;2023-05-14T10:30:49;100385.13;;;13.73;74.16
79144;BME280;68551;47.484;19.092;2023-05-14T10:33:52;100397.50;;;13.75;74.25
79144;BME280;68551;47.484;19.092;2023-05-14T10:37:00;100421.03;;;13.88;72.75
79144;BME280;68551;47.484;19.092;2023-05-14T10:40:03;100431.47;;;13.91;72.48
79144;BME280;68551;47.484;19.092;2023-05-14T10:43:12;100416.31;;;13.72;73.80
79144;BME280;68551;47.484;19.092;2023-05-14T10:46:17;100429.06;;;13.66;73.71
79144;BME280;68551;47.484;19.092;2023-05-14T10:49:19;100428.16;;;13.61;73.61
79144;BME280;68551;47.484;19.092;2023-05-14T10:52:45;100411.53;;;13.79;71.41
79144;BME280;68551;47.484;19.092;2023-05-14T10:55:53;100415.97;;;13.68;71.86
79144;BME280;68551;47.484;19.092;2023-05-14T10:58:58;100414.19;;;13.74;72.45
79144;BME280;68551;47.484;19.092;2023-05-14T11:02:21;100407.72;;;13.80;72.59
79144;BME280;68551;47.484;19.092;2023-05-14T11:05:24;100407.88;;;13.90;72.07
79144;BME280;68551;47.484;19.092;2023-05-14T11:08:29;100402.22;;;13.80;72.54
79144;BME280;68551;47.484;19.092;2023-05-14T11:11:34;100389.53;;;13.74;72.72
79144;BME280;68551;47.484;19.092;2023-05-14T11:14:40;100400.38;;;13.69;73.34
79144;BME280;68551;47.484;19.092;2023-05-14T11:17:46;100399.59;;;13.85;73.47
79144;BME280;68551;47.484;19.092;2023-05-14T11:20:51;100392.03;;;13.75;74.52
79144;BME280;68551;47.484;19.092;2023-05-14T11:23:55;100385.03;;;13.68;74.29
79144;BME280;68551;47.484;19.092;2023-05-14T11:27:00;100384.91;;;13.63;75.35
79144;BME280;68551;47.484;19.092;2023-05-14T11:30:25;100394.91;;;13.69;75.15
79144;BME280;68551;47.484;19.092;2023-05-14T11:33:28;100389.53;;;13.74;74.69
79144;BME280;68551;47.484;19.092;2023-05-14T11:36:32;100384.72;;;13.81;74.45
79144;BME280;68551;47.484;19.092;2023-05-14T11:42:53;100381.81;;;13.71;75.56
79144;BME280;68551;47.484;19.092;2023-05-14T11:45:55;100382.28;;;13.68;73.74
79144;BME280;68551;47.484;19.092;2023-05-14T11:48:57;100382.72;;;13.76;75.44
79144;BME280;68551;47.484;19.092;2023-05-14T11:52:01;100381.25;;;13.57;73.70
79144;BME280;68551;47.484;19.092;2023-05-14T11:55:10;100381.94;;;13.64;75.58
79144;BME280;68551;47.484;19.092;2023-05-14T11:58:13;100372.81;;;13.59;75.21
79144;BME280;68551;47.484;19.092;2023-05-14T12:01:17;100371.44;;;13.44;75.09
79144;BME280;68551;47.484;19.092;2023-05-14T12:04:24;100359.31;;;13.40;76.15
79144;BME280;68551;47.484;19.092;2023-05-14T12:07:30;100354.72;;;13.58;77.02
79144;BME280;68551;47.484;19.092;2023-05-14T12:10:41;100349.72;;;13.55;76.90
79144;BME280;68551;47.484;19.092;2023-05-14T12:13:46;100334.44;;;13.42;76.45
79144;BME280;68551;47.484;19.092;2023-05-14T12:16:49;100347.22;;;13.53;76.04
79144;BME280;68551;47.484;19.092;2023-05-14T12:19:53;100334.78;;;13.45;76.74
79144;BME280;68551;47.484;19.092;2023-05-14T12:22:57;100328.13;;;13.41;76.67
79144;BME280;68551;47.484;19.092;2023-05-14T12:26:04;100332.88;;;13.46;76.83
79144;BME280;68551;47.484;19.092;2023-05-14T12:29:11;100322.78;;;13.35;76.02
79144;BME280;68551;47.484;19.092;2023-05-14T12:32:14;100328.53;;;13.22;78.40
79144;BME280;68551;47.484;19.092;2023-05-14T12:35:16;100324.41;;;13.19;77.69
79144;BME280;68551;47.484;19.092;2023-05-14T12:38:21;100331.75;;;13.30;78.56
79144;BME280;68551;47.484;19.092;2023-05-14T12:41:26;100330.69;;;13.20;79.19
79144;BME280;68551;47.484;19.092;2023-05-14T12:44:29;100324.13;;;13.32;79.45
79144;BME280;68551;47.484;19.092;2023-05-14T12:47:31;100314.97;;;13.27;79.32
79144;BME280;68551;47.484;19.092;2023-05-14T12:50:34;100318.13;;;13.35;79.72
79144;BME280;68551;47.484;19.092;2023-05-14T12:53:40;100312.66;;;13.35;80.37
79144;BME280;68551;47.484;19.092;2023-05-14T12:56:45;100300.03;;;13.18;80.92
79144;BME280;68551;47.484;19.092;2023-05-14T12:59:48;100299.38;;;13.27;81.58
79144;BME280;68551;47.484;19.092;2023-05-14T13:02:50;100290.81;;;13.24;82.08
79144;BME280;68551;47.484;19.092;2023-05-14T13:05:54;100278.44;;;13.21;82.82
79144;BME280;68551;47.484;19.092;2023-05-14T13:08:58;100273.84;;;13.10;82.19
79144;BME280;68551;47.484;19.092;2023-05-14T13:12:06;100276.91;;;13.13;83.35
79144;BME280;68551;47.484;19.092;2023-05-14T13:15:12;100272.94;;;12.93;82.81
79144;BME280;68551;47.484;19.092;2023-05-14T13:18:19;100256.19;;;12.89;84.04
79144;BME280;68551;47.484;19.092;2023-05-14T13:21:21;100268.13;;;13.11;83.95
79144;BME280;68551;47.484;19.092;2023-05-14T13:24:27;100266.81;;;13.14;83.48
79144;BME280;68551;47.484;19.092;2023-05-14T13:27:30;100250.88;;;13.11;84.27
79144;BME280;68551;47.484;19.092;2023-05-14T13:30:35;100246.63;;;13.15;84.84
79144;BME280;68551;47.484;19.092;2023-05-14T13:33:41;100240.41;;;13.08;85.05
79144;BME280;68551;47.484;19.092;2023-05-14T13:36:43;100243.16;;;13.08;84.27
79144;BME280;68551;47.484;19.092;2023-05-14T13:39:52;100233.28;;;13.07;84.30
79144;BME280;68551;47.484;19.092;2023-05-14T13:42:57;100229.88;;;13.00;84.56
79144;BME280;68551;47.484;19.092;2023-05-14T13:46:00;100231.34;;;12.91;85.38
79144;BME280;68551;47.484;19.092;2023-05-14T13:49:08;100212.19;;;12.91;86.56
79144;BME280;68551;47.484;19.092;2023-05-14T13:52:10;100220.88;;;12.88;86.03
79144;BME280;68551;47.484;19.092;2023-05-14T13:55:15;100208.31;;;12.75;86.00
79144;BME280;68551;47.484;19.092;2023-05-14T13:58:20;100218.63;;;12.85;85.76
79144;BME280;68551;47.484;19.092;2023-05-14T14:01:23;100196.88;;;12.78;87.00
79144;BME280;68551;47.484;19.092;2023-05-14T14:04:25;100200.06;;;12.87;86.88
79144;BME280;68551;47.484;19.092;2023-05-14T14:07:30;100202.88;;;12.92;86.50
79144;BME280;68551;47.484;19.092;2023-05-14T14:10:32;100202.69;;;12.82;87.07
79144;BME280;68551;47.484;19.092;2023-05-14T14:13:35;100206.19;;;12.77;86.68
79144;BME280;68551;47.484;19.092;2023-05-14T14:16:39;100197.94;;;12.89;87.85
79144;BME280;68551;47.484;19.092;2023-05-14T14:19:43;100210.00;;;12.76;87.70
79144;BME280;68551;47.484;19.092;2023-05-14T14:22:47;100200.00;;;12.70;87.73
79144;BME280;68551;47.484;19.092;2023-05-14T14:25:52;100211.53;;;12.72;87.54
79144;BME280;68551;47.484;19.092;2023-05-14T14:28:57;100207.97;;;12.71;87.81
79144;BME280;68551;47.484;19.092;2023-05-14T14:31:59;100204.44;;;12.59;88.79
79144;BME280;68551;47.484;19.092;2023-05-14T14:35:02;100208.09;;;12.65;88.73
79144;BME280;68551;47.484;19.092;2023-05-14T14:38:04;100197.69;;;12.62;88.66
79144;BME280;68551;47.484;19.092;2023-05-14T14:41:09;100193.50;;;12.59;88.52
79144;BME280;68551;47.484;19.092;2023-05-14T14:44:11;100197.44;;;12.52;88.33
79144;BME280;68551;47.484;19.092;2023-05-14T14:47:13;100173.09;;;12.50;88.44
79144;BME280;68551;47.484;19.092;2023-05-14T14:50:18;100188.91;;;12.48;88.54
79144;BME280;68551;47.484;19.092;2023-05-14T14:53:23;100193.78;;;12.46;88.53
79144;BME280;68551;47.484;19.092;2023-05-14T14:56:26;100192.47;;;12.37;88.29
79144;BME280;68551;47.484;19.092;2023-05-14T14:59:31;100178.72;;;12.32;89.13
79144;BME280;68551;47.484;19.092;2023-05-14T15:02:33;100162.69;;;12.24;88.79
79144;BME280;68551;47.484;19.092;2023-05-14T15:05:36;100162.38;;;12.20;89.06
79144;BME280;68551;47.484;19.092;2023-05-14T15:08:43;100140.00;;;12.23;88.36
79144;BME280;68551;47.484;19.092;2023-05-14T15:11:45;100153.22;;;12.15;88.51
79144;BME280;68551;47.484;19.092;2023-05-14T15:14:48;100152.75;;;12.18;89.76
79144;BME280;68551;47.484;19.092;2023-05-14T15:17:50;100159.16;;;12.12;89.05
79144;BME280;68551;47.484;19.092;2023-05-14T15:20:58;100130.06;;;12.17;89.08
79144;BME280;68551;47.484;19.092;2023-05-14T15:24:02;100136.72;;;12.10;89.13
79144;BME280;68551;47.484;19.092;2023-05-14T15:27:05;100126.84;;;12.08;89.29
79144;BME280;68551;47.484;19.092;2023-05-14T15:30:10;100131.16;;;12.04;88.88
79144;BME280;68551;47.484;19.092;2023-05-14T15:33:17;100132.59;;;12.07;89.19
79144;BME280;68551;47.484;19.092;2023-05-14T15:36:24;100124.94;;;12.09;88.73
79144;BME280;68551;47.484;19.092;2023-05-14T15:39:26;100123.78;;;11.93;89.51
79144;BME280;68551;47.484;19.092;2023-05-14T15:42:31;100127.13;;;11.95;89.33
79144;BME280;68551;47.484;19.092;2023-05-14T15:45:33;100105.66;;;11.87;89.90
79144;BME280;68551;47.484;19.092;2023-05-14T15:48:36;100123.78;;;11.93;89.14
79144;BME280;68551;47.484;19.092;2023-05-14T15:51:38;100118.91;;;11.95;89.26
79144;BME280;68551;47.484;19.092;2023-05-14T15:54:45;100115.88;;;11.92;89.37
79144;BME280;68551;47.484;19.092;2023-05-14T15:57:47;100099.34;;;11.98;89.65
79144;BME280;68551;47.484;19.092;2023-05-14T16:00:49;100095.91;;;11.91;89.22
79144;BME280;68551;47.484;19.092;2023-05-14T16:03:52;100080.09;;;11.93;89.45